createdAt,value
2022-11-30T00:01:13.621Z,23.87
2022-11-30T00:03:40.829Z,23.57
2022-11-30T00:06:09.896Z,24.77
2022-11-30T00:08:36.999Z,24.47
2022-11-30T00:11:17.741Z,22.63
2022-11-30T00:13:44.889Z,24.17
2022-11-30T00:16:11.586Z,24.70
2022-11-30T00:18:39.335Z,24.13
2022-11-30T00:21:10.381Z,24.70
2022-11-30T00:23:39.709Z,21.00
2022-11-30T00:26:09.025Z,24.03
2022-11-30T00:28:37.565Z,23.57
2022-11-30T00:31:07.190Z,19.60
2022-11-30T00:33:36.074Z,24.43
2022-11-30T00:36:06.283Z,24.40
2022-11-30T00:38:33.249Z,22.97
2022-11-30T00:41:01.233Z,21.57
2022-11-30T00:43:28.441Z,22.63
2022-11-30T00:45:55.363Z,22.40
2022-11-30T00:48:22.479Z,24.30
2022-11-30T00:50:50.187Z,22.27
2022-11-30T00:53:17.883Z,23.27
2022-11-30T00:55:45.094Z,24.77
2022-11-30T00:58:12.276Z,23.00
2022-11-30T01:00:39.520Z,24.57
2022-11-30T01:03:06.329Z,24.67
2022-11-30T01:05:34.604Z,24.83
2022-11-30T01:08:03.001Z,23.13
2022-11-30T01:10:30.552Z,22.07
2022-11-30T01:13:05.046Z,23.60
2022-11-30T01:15:36.081Z,21.30
2022-11-30T01:18:02.750Z,22.73
2022-11-30T01:20:29.513Z,21.80
2022-11-30T01:22:56.408Z,21.90
2022-11-30T01:25:23.482Z,21.77
2022-11-30T01:27:51.024Z,20.97
2022-11-30T01:30:18.758Z,21.07
2022-11-30T01:32:45.793Z,23.80
2022-11-30T01:35:12.705Z,21.67
2022-11-30T01:37:39.449Z,22.67
2022-11-30T01:40:06.905Z,21.60
2022-11-30T01:42:34.045Z,21.67
2022-11-30T01:45:02.368Z,21.07
2022-11-30T01:47:34.809Z,22.37
2022-11-30T01:50:15.113Z,24.63
2022-11-30T01:52:46.913Z,22.60
2022-11-30T01:55:34.895Z,23.90
2022-11-30T01:58:06.179Z,21.07
2022-11-30T02:00:33.020Z,21.90
2022-11-30T02:03:11.187Z,22.83
2022-11-30T02:05:40.073Z,23.37
2022-11-30T02:08:08.676Z,22.17
2022-11-30T02:10:38.889Z,22.73
2022-11-30T02:13:19.026Z,22.53
2022-11-30T02:16:04.324Z,23.00
2022-11-30T02:19:00.852Z,23.90
2022-11-30T02:21:42.613Z,24.30
2022-11-30T02:24:43.392Z,22.03
2022-11-30T02:27:47.570Z,22.80
2022-11-30T02:30:18.533Z,22.17
2022-11-30T02:33:03.493Z,22.53
2022-11-30T02:35:33.385Z,22.97
2022-11-30T02:38:01.956Z,22.87
2022-11-30T02:40:28.858Z,22.77
2022-11-30T02:42:57.553Z,21.33
2022-11-30T02:45:44.190Z,21.90
2022-11-30T02:48:13.888Z,22.37
2022-11-30T02:50:52.897Z,23.33
2022-11-30T02:53:20.086Z,21.17
2022-11-30T02:55:47.254Z,22.10
2022-11-30T02:58:16.898Z,23.37
2022-11-30T03:00:43.647Z,21.77
2022-11-30T03:03:10.536Z,22.23
2022-11-30T03:05:37.552Z,22.13
2022-11-30T03:08:04.937Z,22.03
2022-11-30T03:10:31.871Z,22.67
2022-11-30T03:12:59.433Z,21.87
2022-11-30T03:15:26.595Z,21.07
2022-11-30T03:17:53.243Z,20.27
2022-11-30T03:20:19.924Z,19.90
2022-11-30T03:22:46.849Z,20.07
2022-11-30T03:25:13.546Z,21.33
2022-11-30T03:27:40.268Z,22.80
2022-11-30T03:30:07.673Z,22.07
2022-11-30T03:32:34.422Z,22.70
2022-11-30T03:35:01.289Z,22.90
2022-11-30T03:37:28.218Z,21.60
2022-11-30T03:39:58.151Z,23.07
2022-11-30T03:42:25.564Z,26.03
2022-11-30T03:44:52.326Z,25.90
2022-11-30T03:47:18.965Z,23.87
2022-11-30T03:49:45.596Z,23.57
2022-11-30T03:52:12.281Z,23.90
2022-11-30T03:54:38.935Z,22.87
2022-11-30T03:57:05.813Z,24.10
2022-11-30T03:59:32.600Z,23.80
2022-11-30T04:01:59.441Z,22.60
2022-11-30T04:04:26.112Z,23.33
2022-11-30T04:06:53.078Z,24.10
2022-11-30T04:09:19.806Z,22.70
2022-11-30T04:11:46.824Z,23.80
2022-11-30T04:14:13.813Z,23.10
2022-11-30T04:16:40.528Z,23.17
2022-11-30T04:19:07.160Z,24.43
2022-11-30T04:21:33.831Z,23.57
2022-11-30T04:24:00.774Z,23.40
2022-11-30T04:26:27.770Z,23.73
2022-11-30T04:28:54.456Z,23.20
2022-11-30T04:31:21.273Z,23.73
2022-11-30T04:33:47.933Z,24.30
2022-11-30T04:36:20.221Z,23.57
2022-11-30T04:38:47.662Z,22.07
2022-11-30T04:41:14.772Z,23.80
2022-11-30T04:43:41.827Z,22.00
2022-11-30T04:46:08.561Z,24.83
2022-11-30T04:48:35.539Z,22.77
2022-11-30T04:51:06.916Z,24.40
2022-11-30T04:53:34.955Z,23.30
2022-11-30T04:56:09.770Z,23.17
2022-11-30T04:58:37.245Z,22.10
2022-11-30T05:01:04.105Z,25.13
2022-11-30T05:03:30.967Z,22.40
2022-11-30T05:05:57.635Z,23.00
2022-11-30T05:08:24.485Z,24.00
2022-11-30T05:10:55.247Z,20.80
2022-11-30T05:13:23.710Z,23.90
2022-11-30T05:15:50.912Z,22.57
2022-11-30T05:18:17.847Z,21.63
2022-11-30T05:20:49.354Z,22.93
2022-11-30T05:23:16.822Z,24.23
2022-11-30T05:25:44.030Z,20.27
2022-11-30T05:28:11.365Z,23.40
2022-11-30T05:30:39.719Z,23.17
2022-11-30T05:33:07.246Z,22.70
2022-11-30T05:35:35.111Z,23.53
2022-11-30T05:38:02.146Z,21.47
2022-11-30T05:40:30.242Z,20.83
2022-11-30T05:42:59.187Z,21.57
2022-11-30T05:45:26.220Z,19.67
2022-11-30T05:47:53.331Z,23.50
2022-11-30T05:50:20.518Z,22.73
2022-11-30T05:52:47.430Z,22.23
2022-11-30T05:55:14.277Z,22.07
2022-11-30T05:57:41.328Z,23.67
2022-11-30T06:00:09.337Z,21.40
2022-11-30T06:02:36.385Z,23.17
2022-11-30T06:05:03.363Z,21.83
2022-11-30T06:07:30.297Z,22.23
2022-11-30T06:09:57.287Z,24.50
2022-11-30T06:12:23.931Z,23.17
2022-11-30T06:14:53.483Z,23.50
2022-11-30T06:17:20.224Z,23.80
2022-11-30T06:19:46.993Z,24.03
2022-11-30T06:22:13.658Z,23.30
2022-11-30T06:24:40.302Z,23.80
2022-11-30T06:27:07.041Z,24.23
2022-11-30T06:29:33.648Z,21.17
2022-11-30T06:32:00.391Z,23.50
2022-11-30T06:34:27.157Z,22.03
2022-11-30T06:37:00.893Z,23.40
2022-11-30T06:40:04.071Z,24.07
2022-11-30T06:42:19.880Z,24.07
2022-11-30T06:44:47.096Z,25.93
2022-11-30T06:47:14.048Z,23.80
2022-11-30T06:49:40.975Z,22.10
2022-11-30T06:52:19.962Z,22.60
2022-11-30T06:55:14.520Z,23.83
2022-11-30T06:57:47.892Z,22.57
2022-11-30T07:00:15.309Z,22.90
2022-11-30T07:02:42.026Z,24.60
2022-11-30T07:05:09.274Z,23.30
2022-11-30T07:07:36.093Z,24.47
2022-11-30T07:10:03.106Z,25.40
2022-11-30T07:12:29.765Z,25.17
2022-11-30T07:14:56.518Z,25.57
2022-11-30T07:17:23.491Z,25.13
2022-11-30T07:19:50.204Z,22.63
2022-11-30T07:22:16.941Z,22.90
2022-11-30T07:25:02.220Z,23.97
2022-11-30T07:27:28.955Z,23.83
2022-11-30T07:29:55.762Z,22.47
2022-11-30T07:32:22.396Z,23.10
2022-11-30T07:34:49.341Z,24.87
2022-11-30T07:37:16.171Z,23.63
2022-11-30T07:39:42.864Z,25.10
2022-11-30T07:42:09.512Z,25.30
2022-11-30T07:44:36.212Z,22.10
2022-11-30T07:47:02.974Z,24.67
2022-11-30T07:49:29.745Z,22.90
2022-11-30T07:51:56.801Z,23.10
2022-11-30T07:54:23.590Z,21.13
2022-11-30T07:56:50.466Z,22.97
2022-11-30T07:59:17.189Z,23.53
2022-11-30T08:01:43.955Z,23.13
2022-11-30T08:04:13.979Z,26.90
2022-11-30T08:06:40.852Z,23.43
2022-11-30T08:09:07.467Z,23.50
2022-11-30T08:11:35.851Z,24.67
2022-11-30T08:14:03.589Z,23.30
2022-11-30T08:16:34.162Z,22.33
2022-11-30T08:19:00.884Z,23.80
2022-11-30T08:21:27.581Z,25.40
2022-11-30T08:23:56.604Z,23.67
2022-11-30T08:26:31.650Z,25.60
2022-11-30T08:29:00.392Z,26.63
2022-11-30T08:31:33.418Z,26.10
2022-11-30T08:34:13.922Z,25.70
2022-11-30T08:36:47.226Z,23.80
2022-11-30T08:39:17.645Z,26.10
2022-11-30T08:41:44.535Z,26.50
2022-11-30T08:44:11.246Z,27.03
2022-11-30T08:46:53.850Z,26.17
2022-11-30T08:49:23.909Z,25.77
2022-11-30T08:54:42.792Z,25.67
2022-11-30T08:57:09.969Z,24.70
2022-11-30T08:59:36.855Z,25.97
2022-11-30T09:02:33.116Z,26.90
2022-11-30T09:08:44.843Z,25.70
2022-11-30T09:11:19.376Z,25.97
2022-11-30T09:13:46.728Z,26.60
2022-11-30T09:16:15.378Z,26.70
2022-11-30T09:18:42.273Z,25.03
2022-11-30T09:21:11.707Z,25.30
2022-11-30T09:23:38.853Z,26.00
2022-11-30T09:26:08.603Z,26.90
2022-11-30T09:28:35.785Z,26.20
2022-11-30T09:31:08.024Z,24.50
2022-11-30T09:33:35.288Z,23.80
2022-11-30T09:36:04.939Z,26.53
2022-11-30T09:38:31.659Z,24.43
2022-11-30T09:41:00.918Z,27.30
2022-11-30T09:43:46.148Z,25.80
2022-11-30T09:46:13.006Z,24.27
2022-11-30T09:49:03.277Z,25.30
2022-11-30T09:51:43.074Z,24.70
2022-11-30T09:54:16.577Z,23.70
2022-11-30T09:56:44.785Z,26.70
2022-11-30T09:59:29.654Z,25.27
2022-11-30T10:01:58.295Z,25.83
2022-11-30T10:04:27.991Z,24.87
2022-11-30T10:07:21.977Z,26.30
2022-11-30T10:10:30.903Z,24.90
2022-11-30T10:12:59.411Z,22.10
2022-11-30T10:15:28.877Z,24.90
2022-11-30T10:18:04.216Z,24.30
2022-11-30T10:20:40.309Z,22.63
2022-11-30T10:23:18.338Z,24.00
2022-11-30T10:26:08.314Z,22.33
2022-11-30T10:28:49.383Z,25.23
2022-11-30T10:31:17.386Z,23.73
2022-11-30T10:33:51.182Z,23.77
2022-11-30T10:36:37.376Z,24.23
2022-11-30T10:39:19.602Z,22.13
2022-11-30T10:41:53.090Z,23.30
2022-11-30T10:44:33.986Z,22.30
2022-11-30T10:47:11.226Z,22.13
2022-11-30T10:49:41.426Z,24.20
2022-11-30T10:52:09.234Z,22.50
2022-11-30T10:54:36.701Z,22.60
2022-11-30T10:57:05.515Z,24.03
2022-11-30T10:59:44.232Z,22.77
2022-11-30T11:02:34.834Z,21.47
2022-11-30T11:05:37.112Z,22.10
2022-11-30T11:08:19.341Z,22.33
2022-11-30T11:10:49.662Z,21.57
2022-11-30T11:13:36.203Z,21.50
2022-11-30T11:16:04.381Z,24.60
2022-11-30T11:18:32.883Z,21.73
2022-11-30T11:21:06.080Z,23.23
2022-11-30T11:23:43.909Z,23.23
2022-11-30T11:26:26.287Z,19.23
2022-11-30T11:28:55.458Z,22.90
2022-11-30T11:31:36.727Z,23.07
2022-11-30T11:34:05.981Z,21.97
2022-11-30T11:36:36.986Z,19.83
2022-11-30T11:39:23.859Z,22.03
2022-11-30T11:41:52.492Z,19.57
2022-11-30T11:44:22.503Z,20.53
2022-11-30T11:47:01.179Z,24.07
2022-11-30T11:49:31.927Z,21.33
2022-11-30T11:52:20.369Z,20.57
2022-11-30T11:54:53.097Z,21.27
2022-11-30T11:57:25.793Z,22.27
2022-11-30T11:59:58.716Z,21.00
2022-11-30T12:02:34.767Z,21.17
2022-11-30T12:05:09.767Z,20.87
2022-11-30T12:08:02.469Z,20.30
2022-11-30T12:10:51.655Z,21.30
2022-11-30T12:13:23.321Z,24.57
2022-11-30T12:16:15.767Z,24.60
2022-11-30T12:18:46.449Z,20.80
2022-11-30T12:21:39.610Z,21.47
2022-11-30T12:24:21.230Z,21.33
2022-11-30T12:26:58.544Z,19.57
2022-11-30T12:29:39.583Z,22.27
2022-11-30T12:32:27.727Z,21.90
2022-11-30T12:35:03.360Z,21.20
2022-11-30T12:37:47.470Z,19.00
2022-11-30T12:40:20.424Z,21.63
2022-11-30T12:42:52.353Z,21.73
2022-11-30T12:45:28.159Z,19.90
2022-11-30T12:47:57.995Z,21.43
2022-11-30T12:50:36.906Z,19.23
2022-11-30T12:53:33.668Z,20.20
2022-11-30T12:56:06.670Z,19.50
2022-11-30T12:58:43.926Z,18.70
2022-11-30T13:01:20.388Z,19.30
2022-11-30T13:03:53.297Z,20.10
2022-11-30T13:06:42.512Z,19.50
2022-11-30T13:09:18.354Z,19.07
2022-11-30T13:11:57.685Z,18.87
2022-11-30T13:14:27.611Z,21.23
2022-11-30T13:17:08.341Z,20.60
2022-11-30T13:20:13.443Z,18.93
2022-11-30T13:22:52.704Z,20.00
2022-11-30T13:26:07.254Z,20.60
2022-11-30T13:28:36.964Z,20.70
2022-11-30T13:31:41.842Z,18.77
2022-11-30T13:39:30.294Z,19.07
2022-11-30T13:42:02.753Z,19.53
2022-11-30T13:44:38.696Z,18.70
2022-11-30T13:47:26.331Z,20.30
2022-11-30T13:50:19.965Z,19.40
2022-11-30T13:52:59.155Z,19.63
2022-11-30T13:55:46.015Z,19.70
2022-11-30T13:58:15.556Z,20.63
2022-11-30T14:00:42.738Z,20.50
2022-11-30T14:03:25.812Z,19.90
2022-11-30T14:05:57.542Z,19.93
2022-11-30T14:08:24.343Z,20.13
2022-11-30T14:10:52.863Z,19.17
2022-11-30T14:13:22.819Z,19.27
2022-11-30T14:16:02.826Z,20.40
2022-11-30T14:18:38.594Z,19.70
2022-11-30T14:21:22.831Z,19.03
2022-11-30T14:24:15.454Z,19.43
2022-11-30T14:26:48.449Z,19.60
2022-11-30T14:29:36.364Z,18.27
2022-11-30T14:32:13.437Z,17.50
2022-11-30T14:34:48.026Z,18.23
2022-11-30T14:37:25.949Z,18.60
2022-11-30T14:39:56.666Z,18.10
2022-11-30T14:42:29.748Z,19.77
2022-11-30T14:44:57.169Z,19.20
2022-11-30T14:47:31.027Z,18.30
2022-11-30T14:50:02.481Z,18.87
2022-11-30T14:52:50.752Z,17.90
2022-11-30T14:55:35.391Z,19.97
2022-11-30T14:58:32.485Z,19.90
2022-11-30T15:00:59.588Z,20.23
2022-11-30T15:03:31.237Z,18.20
2022-11-30T15:06:03.221Z,21.37
2022-11-30T15:08:41.209Z,21.23
2022-11-30T15:11:13.360Z,20.97
2022-11-30T15:13:53.870Z,22.10
2022-11-30T15:16:22.015Z,22.60
2022-11-30T15:18:49.921Z,20.33
2022-11-30T15:21:25.831Z,20.30
2022-11-30T15:23:54.816Z,21.03
2022-11-30T15:26:25.615Z,20.47
2022-11-30T15:29:01.354Z,18.47
2022-11-30T15:31:34.813Z,18.07
2022-11-30T15:34:01.937Z,21.33
2022-11-30T15:36:38.333Z,19.00
2022-11-30T15:39:08.146Z,19.00
2022-11-30T15:41:36.181Z,18.77
2022-11-30T15:44:03.052Z,18.90
2022-11-30T15:46:46.395Z,19.50
2022-11-30T15:49:24.438Z,18.43
2022-11-30T15:52:15.628Z,19.37
2022-11-30T15:54:54.112Z,19.10
2022-11-30T15:57:25.744Z,20.53
2022-11-30T16:00:14.388Z,20.80
2022-11-30T16:02:41.116Z,17.93
2022-11-30T16:05:14.965Z,18.00
2022-11-30T16:07:55.066Z,18.93
2022-11-30T16:10:26.024Z,19.10
2022-11-30T16:12:54.491Z,19.60
2022-11-30T16:15:30.422Z,20.57
2022-11-30T16:18:00.903Z,19.50
2022-11-30T16:20:27.709Z,20.03
2022-11-30T16:22:54.379Z,20.17
2022-11-30T16:25:23.640Z,22.20
2022-11-30T16:27:51.218Z,20.30
2022-11-30T16:30:21.408Z,22.07
2022-11-30T16:32:48.514Z,25.00
2022-11-30T16:35:30.243Z,23.53
2022-11-30T16:37:56.985Z,30.57
2022-11-30T16:40:24.190Z,32.40
2022-11-30T16:42:51.835Z,28.10
2022-11-30T16:45:24.182Z,25.50
2022-11-30T16:47:52.083Z,24.97
2022-11-30T16:50:19.725Z,24.40
2022-11-30T16:52:46.571Z,26.83
2022-11-30T16:55:18.234Z,24.37
2022-11-30T16:57:45.458Z,22.30
2022-11-30T17:00:14.822Z,22.03
2022-11-30T17:03:19.623Z,23.57
2022-11-30T17:05:46.761Z,23.37
2022-11-30T17:08:13.423Z,21.30
2022-11-30T17:10:40.398Z,21.87
2022-11-30T17:13:07.084Z,21.97
2022-11-30T17:15:33.746Z,23.43
2022-11-30T17:18:00.571Z,23.17
2022-11-30T17:20:28.142Z,23.77
2022-11-30T17:22:54.911Z,22.13
2022-11-30T17:25:23.755Z,26.03
2022-11-30T17:27:51.261Z,22.27
2022-11-30T17:30:21.267Z,25.03
2022-11-30T17:32:48.542Z,23.00
2022-11-30T17:35:15.352Z,22.23
2022-11-30T17:37:42.280Z,24.27
2022-11-30T17:40:13.237Z,19.83
2022-11-30T17:42:39.996Z,19.37
2022-11-30T17:45:07.324Z,21.90
2022-11-30T17:47:34.136Z,19.10
2022-11-30T17:50:01.241Z,20.50
2022-11-30T17:52:27.937Z,21.23
2022-11-30T17:54:55.038Z,18.90
2022-11-30T17:57:21.769Z,18.50
2022-11-30T17:59:48.614Z,19.30
2022-11-30T18:02:15.396Z,19.03
2022-11-30T18:04:42.155Z,18.67
2022-11-30T18:07:08.826Z,18.93
2022-11-30T18:09:42.215Z,16.97
2022-11-30T18:12:09.882Z,18.17
2022-11-30T18:14:36.711Z,18.47
2022-11-30T18:17:03.494Z,16.03
2022-11-30T18:19:30.335Z,17.50
2022-11-30T18:21:57.464Z,17.00
2022-11-30T18:24:25.716Z,19.37
2022-11-30T18:26:53.416Z,19.60
2022-11-30T18:29:20.797Z,17.87
2022-11-30T18:31:51.351Z,17.20
2022-11-30T18:34:18.244Z,17.00
2022-11-30T18:36:45.142Z,16.77
2022-11-30T18:39:11.900Z,17.03
2022-11-30T18:41:38.702Z,15.60
2022-11-30T18:44:05.569Z,17.77
2022-11-30T18:46:32.378Z,18.97
2022-11-30T18:48:59.493Z,17.57
2022-11-30T18:51:28.144Z,16.27
2022-11-30T18:54:02.866Z,17.00
2022-11-30T18:56:31.917Z,15.63
2022-11-30T18:59:01.645Z,16.60
2022-11-30T19:01:29.362Z,17.47
2022-11-30T19:03:57.038Z,17.20
2022-11-30T19:06:32.038Z,17.50
2022-11-30T19:09:01.358Z,16.53
2022-11-30T19:11:28.488Z,16.80
2022-11-30T19:13:56.682Z,16.43
2022-11-30T19:16:24.665Z,16.60
2022-11-30T19:18:52.879Z,16.40
2022-11-30T19:21:21.670Z,14.00
2022-11-30T19:23:49.393Z,17.80
2022-11-30T19:26:16.740Z,14.53
2022-11-30T19:28:44.185Z,15.90
2022-11-30T19:31:13.814Z,15.90
2022-11-30T19:33:42.234Z,14.40
2022-11-30T19:36:12.960Z,15.47
2022-11-30T19:38:39.766Z,16.33
2022-11-30T19:41:08.380Z,15.07
2022-11-30T19:43:35.489Z,14.97
2022-11-30T19:46:07.353Z,14.90
2022-11-30T19:48:34.473Z,15.80
2022-11-30T19:51:10.924Z,15.80
2022-11-30T19:53:41.395Z,14.97
2022-11-30T19:56:16.391Z,14.43
2022-11-30T19:58:44.734Z,16.80
2022-11-30T20:01:23.040Z,15.90
2022-11-30T20:09:01.897Z,15.27
2022-11-30T20:11:28.803Z,15.73
2022-11-30T20:13:55.566Z,16.23
2022-11-30T20:16:23.126Z,15.57
2022-11-30T20:18:55.012Z,13.77
2022-11-30T20:21:27.670Z,14.83
2022-11-30T20:23:58.052Z,14.50
2022-11-30T20:26:36.667Z,17.10
2022-11-30T20:29:05.469Z,14.40
2022-11-30T20:31:34.648Z,17.80
2022-11-30T20:34:01.658Z,16.30
2022-11-30T20:36:28.714Z,19.23
2022-11-30T20:38:55.522Z,20.13
2022-11-30T20:41:24.138Z,20.20
2022-11-30T20:43:51.870Z,19.90
2022-11-30T20:46:21.526Z,20.37
2022-11-30T20:48:48.871Z,21.37
2022-11-30T20:51:33.760Z,19.23
2022-11-30T20:54:03.849Z,21.07
2022-11-30T20:56:31.136Z,18.93
2022-11-30T20:59:02.147Z,20.40
2022-11-30T21:01:29.157Z,20.90
2022-11-30T21:03:56.166Z,19.97
2022-11-30T21:06:22.851Z,19.70
2022-11-30T21:08:49.727Z,20.13
2022-11-30T21:11:19.889Z,19.23
2022-11-30T21:13:49.997Z,21.10
2022-11-30T21:16:24.021Z,20.60
2022-11-30T21:18:54.556Z,20.67
2022-11-30T21:21:24.584Z,18.80
2022-11-30T21:23:51.734Z,21.20
2022-11-30T21:26:22.027Z,20.20
2022-11-30T21:28:49.756Z,20.07
2022-11-30T21:31:16.551Z,18.43
2022-11-30T21:33:50.394Z,20.63
2022-11-30T21:36:19.583Z,21.30
2022-11-30T21:38:46.279Z,20.60
2022-11-30T21:41:14.218Z,22.30
2022-11-30T21:43:41.555Z,21.27
2022-11-30T21:46:17.219Z,21.33
2022-11-30T21:48:45.500Z,21.63
2022-11-30T21:51:24.127Z,19.80
2022-11-30T21:53:53.450Z,20.30
2022-11-30T21:56:22.915Z,20.50
2022-11-30T21:58:51.216Z,20.47
2022-11-30T22:01:31.096Z,20.03
2022-11-30T22:03:59.179Z,20.00
2022-11-30T22:06:27.931Z,20.43
2022-11-30T22:08:57.394Z,20.37
2022-11-30T22:11:24.259Z,20.53
2022-11-30T22:13:52.588Z,20.97
2022-11-30T22:16:20.505Z,21.53
2022-11-30T22:18:47.968Z,20.90
2022-11-30T22:21:17.214Z,20.03
2022-11-30T22:23:46.531Z,23.27
2022-11-30T22:26:26.829Z,22.90
2022-11-30T22:29:05.848Z,24.77
2022-11-30T22:31:37.842Z,22.23
2022-11-30T22:34:05.356Z,21.33
2022-11-30T22:36:34.097Z,22.73
2022-11-30T22:39:06.610Z,19.80
2022-11-30T22:41:33.860Z,20.97
2022-11-30T22:44:00.581Z,23.33
2022-11-30T22:46:29.654Z,22.53
2022-11-30T22:48:59.820Z,23.43
2022-11-30T22:51:28.722Z,24.63
2022-11-30T22:53:55.861Z,23.20
2022-11-30T22:56:25.243Z,25.33
2022-11-30T22:58:54.159Z,22.80
2022-11-30T23:01:23.507Z,23.77
2022-11-30T23:03:51.457Z,24.27
2022-11-30T23:06:20.188Z,25.60
2022-11-30T23:08:48.043Z,23.80
2022-11-30T23:11:18.055Z,27.40
2022-11-30T23:13:45.093Z,23.00
2022-11-30T23:16:14.270Z,28.30
2022-11-30T23:19:01.542Z,24.93
2022-11-30T23:21:30.672Z,25.43
2022-11-30T23:24:00.820Z,25.27
2022-11-30T23:26:36.506Z,25.10
2022-11-30T23:29:10.865Z,24.50
2022-11-30T23:31:39.247Z,26.20
2022-11-30T23:34:16.092Z,25.00
2022-11-30T23:36:42.944Z,26.60
2022-11-30T23:39:12.990Z,24.97
2022-11-30T23:41:40.220Z,27.57
2022-11-30T23:44:07.683Z,27.87
2022-11-30T23:46:34.917Z,27.90
2022-11-30T23:49:02.210Z,29.73
2022-11-30T23:51:29.097Z,26.30
2022-11-30T23:53:56.219Z,27.63
2022-11-30T23:56:24.530Z,25.97
2022-11-30T23:58:52.110Z,26.70
